ENAT/ALF METAR and TAF weather

Enter ICAO airport designator
Station Type Date Time Source
ENAT METAR 2021/09/23 17:50 UTC NOAA

ENAT 231750Z 15012KT 9999 BKN024 08/03 Q0997 RMK WIND 700FT 18020KT


Station Type Date Time Source
ENAT Decoded METAR 2021/09/23 17:50 UTC NOAA

Alta Lufthavn, Norway (ENAT) 69-59N 023-22E 3M
Sep 23, 2021 - 01:50 PM EDT / 2021.09.23 1750 UTC
Wind: from the SSE (150 degrees) at 14 MPH (12 KT):0
Visibility: greater than 7 mile(s):0
Sky conditions: mostly cloudy
Temperature: 46 F (8 C)
Dew Point: 37 F (3 C)
Relative Humidity: 70%
Pressure (altimeter): 29.44 in. Hg (0997 hPa)
ob: ENAT 231750Z 15012KT 9999 BKN024 08/03 Q0997 RMK WIND 700FT 18020KT
cycle: 18

Station Type Date Time Source
ENAT TAF 2008/11/30 23:00 UTC NOAA

TAF TAF ENAT 302300Z 3023/0102 22005KT 7000 -SN FEW008 BKN020
TEMPO 3023/0102 3000 -SN VV012

Example: see airport list